Aeroporto :
LOGIN :

Iscrizione | Disclaimer

   EN    FR    IT 

 










Sommario :    VFR   VFR Marginale   IFR   IFR Intensivo   IFR Molto Intensivo
Visibilità : 
Base nubi : 
>= 8 km
>= 3000ft
5 / 8 km
1000 / 3000 ft
1500m / 5 km
500 / 1000 ft
800 / 1500m
200 / 500 ft
< 800m
< 200 ft
Simboli :   Temporali  Nebbia  Neve Forte  Precipitazioni Forti  Vento > 20 kt
SIGMETs :   Varie  Temporali  Ghiacco  Turbolenza  Onda orograficha  Ceneri Vulcaniche






- Altitudine del aeroporto : 3100 ft
- Codice IATA : NAV


LTAZ - Kapadokya

ULTIMO METAR :
  • 231750Z 14004KT CAVOK M01/M05 Q1026 RMK RWY29 19003KT

METARs OBSOLETI :
  • 231720Z 08004KT CAVOK M00/M04 Q1026 RMK RWY29 00000KT
  • 231650Z 21006KT CAVOK 00/M05 Q1026
  • 231620Z 22005KT 210V270 CAVOK 01/M04 Q1026
  • 231550Z 28002KT CAVOK 03/M04 Q1026 RMK RWY29 29003KT
  • 231520Z 33002KT CAVOK 04/M04 Q1026 RMK RWY29 31004KT

TAF TAF LTAZ
Valido dal 23 a 18 ore il 24 a 18 ore UTC


231640Z 2318/2418 VRB02KT CAVOK



MetMap, La meteo Aeronautica in un colpo d'occhio ! - Copyright ORBIFLY Dicembre 2007 - Disclaimer

ORBIFLY MET'MAP TEAM :

Programmazione e sviluppo : Alexandra Zaïnal
Concezione : Baudouin d'Aumeries
Aiuto per la programmazione : Marc-Olivier Méhu
Supporto tecnico e logistico : Manuel Goepfert
Aiuto per la traduzione : Arnaldo La Scala

Contatto : metmap@orbifly.com




FONTI E CREDITI :

   NOAA